Tamaya, New Mexico
Current Conditions -  °F | °C
As of 4:35 AM on Sunday 21 Dec 2014 (Local Time) from KAEG Reporting Station
Overcast Overcast  
Wind Chill: 27°   Ceiling: 7000
Heat Index: 33°   Visibility: 10mi
Dew Point: 27°   Wind: 7mph
Humidity: 78%   Direction: 310°NW
Pressure: 30.07"   Gusts: NA
Location:  35.4078°N, 106.82°W
Report Text: KAEG 211135Z AUTO 31006KT 10SM OVC070 01/M03 A3007 RMK AO2 T00061029
Loading
Personal Weather Stations






























Interactive Weather Map New forecast layout! Learn more

10-Day Weather Forecast

Advertisements
Track Severe Weather on mobile